createdAt,value
2022-10-18T00:01:51.823Z,99113.47
2022-10-18T00:04:20.297Z,99109.28
2022-10-18T00:06:48.613Z,99112.81
2022-10-18T00:09:18.513Z,99114.06
2022-10-18T00:11:46.695Z,99117.13
2022-10-18T00:14:15.117Z,99109.50
2022-10-18T00:16:43.328Z,99115.84
2022-10-18T00:19:11.615Z,99119.16
2022-10-18T00:21:40.027Z,99120.22
2022-10-18T00:24:08.328Z,99121.06
2022-10-18T00:26:38.188Z,99126.91
2022-10-18T00:29:07.600Z,99128.03
2022-10-18T00:31:38.854Z,99130.53
2022-10-18T00:34:11.228Z,99122.91
2022-10-18T00:36:39.580Z,99114.06
2022-10-18T00:39:10.372Z,99117.50
2022-10-18T00:41:39.989Z,99109.78
2022-10-18T00:44:57.372Z,99102.88
2022-10-18T00:47:25.736Z,99117.41
2022-10-18T00:49:58.215Z,99110.81
2022-10-18T00:52:32.726Z,99112.88
2022-10-18T00:55:01.552Z,99113.25
2022-10-18T00:57:31.231Z,99114.25
2022-10-18T00:59:59.725Z,99115.28
2022-10-18T01:02:28.300Z,99117.16
2022-10-18T01:04:56.812Z,99117.97
2022-10-18T01:07:41.755Z,99123.28
2022-10-18T01:10:26.842Z,99118.09
2022-10-18T01:13:08.018Z,99120.13
2022-10-18T01:15:43.521Z,99119.38
2022-10-18T01:18:22.217Z,99128.19
2022-10-18T01:21:25.070Z,99122.38
2022-10-18T01:24:35.180Z,99111.03
2022-10-18T01:27:32.547Z,99103.09
2022-10-18T01:30:38.108Z,99114.16
2022-10-18T01:33:16.611Z,99113.88
2022-10-18T01:35:52.588Z,99112.03
2022-10-18T01:38:22.405Z,99119.03
2022-10-18T01:40:53.420Z,99115.59
2022-10-18T01:43:24.552Z,99117.25
2022-10-18T01:45:56.696Z,99114.53
2022-10-18T01:48:25.347Z,99109.25
2022-10-18T01:50:54.472Z,99115.28
2022-10-18T01:53:29.967Z,99109.03
2022-10-18T01:56:25.946Z,99107.31
2022-10-18T01:59:08.729Z,99105.41
2022-10-18T02:01:52.095Z,99111.56
2022-10-18T02:04:31.080Z,99109.91
2022-10-18T02:07:07.221Z,99106.38
2022-10-18T02:09:42.526Z,99109.03
2022-10-18T02:12:13.270Z,99116.97
2022-10-18T02:14:44.451Z,99116.97
2022-10-18T02:17:16.351Z,99116.22
2022-10-18T02:19:48.696Z,99111.94
2022-10-18T02:22:18.285Z,99120.69
2022-10-18T02:24:51.603Z,99112.03
2022-10-18T02:27:20.015Z,99107.94
2022-10-18T02:29:48.724Z,99108.97
2022-10-18T02:32:22.756Z,99102.91
2022-10-18T02:34:59.547Z,99105.81
2022-10-18T02:37:33.637Z,99099.31
2022-10-18T02:40:02.897Z,99099.44
2022-10-18T02:42:36.563Z,99089.88
2022-10-18T02:45:06.664Z,99098.06
2022-10-18T02:47:36.297Z,99100.75
2022-10-18T02:50:05.039Z,99100.84
2022-10-18T02:52:33.308Z,99106.03
2022-10-18T02:55:02.214Z,99101.84
2022-10-18T02:57:31.376Z,99102.63
2022-10-18T03:00:00.026Z,99104.38
2022-10-18T03:02:28.491Z,99098.53
2022-10-18T03:04:58.257Z,99089.88
2022-10-18T03:07:26.664Z,99095.16
2022-10-18T03:09:54.961Z,99090.88
2022-10-18T03:12:24.014Z,99085.69
2022-10-18T03:14:52.499Z,99090.72
2022-10-18T03:17:20.812Z,99081.03
2022-10-18T03:19:49.176Z,99082.91
2022-10-18T03:22:18.889Z,99084.47
2022-10-18T03:24:47.477Z,99080.84
2022-10-18T03:27:15.740Z,99082.72
2022-10-18T03:29:44.146Z,99092.38
2022-10-18T03:32:12.490Z,99087.06
2022-10-18T03:34:40.825Z,99093.03
2022-10-18T03:37:09.682Z,99089.78
2022-10-18T03:39:39.245Z,99085.31
2022-10-18T03:42:07.540Z,99089.00
2022-10-18T03:44:36.010Z,99077.69
2022-10-18T03:47:04.315Z,99076.75
2022-10-18T03:52:01.795Z,99075.00
2022-10-18T03:54:30.063Z,99079.25
2022-10-18T03:56:59.649Z,99077.69
2022-10-18T03:59:27.931Z,99070.78
2022-10-18T04:01:56.209Z,99075.09
2022-10-18T04:04:24.432Z,99070.91
2022-10-18T04:06:52.742Z,99074.50
2022-10-18T04:09:21.585Z,99082.53
2022-10-18T04:11:51.518Z,99075.72
2022-10-18T04:14:22.039Z,99074.91
2022-10-18T04:16:50.455Z,99081.09
2022-10-18T04:19:18.715Z,99082.03
2022-10-18T04:21:47.787Z,99087.69
2022-10-18T04:24:18.135Z,99093.09
2022-10-18T04:26:46.967Z,99092.34
2022-10-18T04:29:15.222Z,99101.06
2022-10-18T04:31:44.880Z,99103.50
2022-10-18T04:34:13.158Z,99093.53
2022-10-18T04:36:41.455Z,99100.16
2022-10-18T04:39:10.152Z,99100.50
2022-10-18T04:41:38.487Z,99094.75
2022-10-18T04:44:06.965Z,99093.47
2022-10-18T04:46:35.728Z,99097.28
2022-10-18T04:49:05.386Z,99099.88
2022-10-18T04:51:33.686Z,99093.69
2022-10-18T04:54:01.908Z,99105.09
2022-10-18T04:56:30.450Z,99103.25
2022-10-18T04:59:00.120Z,99102.50
2022-10-18T05:01:28.629Z,99100.06
2022-10-18T05:03:57.255Z,99100.66
2022-10-18T05:06:26.963Z,99101.75
2022-10-18T05:08:55.328Z,99107.41
2022-10-18T05:11:23.718Z,99106.97
2022-10-18T05:13:52.183Z,99102.50
2022-10-18T05:16:20.411Z,99098.22
2022-10-18T05:18:48.774Z,99096.19
2022-10-18T05:21:17.481Z,99104.16
2022-10-18T05:23:47.116Z,99097.78
2022-10-18T05:26:15.428Z,99105.09
2022-10-18T05:28:43.976Z,99099.06
2022-10-18T05:31:12.669Z,99096.28
2022-10-18T05:33:41.099Z,99098.78
2022-10-18T05:36:09.907Z,99102.38
2022-10-18T05:38:42.653Z,99092.75
2022-10-18T05:41:13.371Z,99097.84
2022-10-18T05:43:42.412Z,99099.56
2022-10-18T05:46:15.006Z,99108.19
2022-10-18T05:48:44.877Z,99113.28
2022-10-18T05:51:13.638Z,99102.88
2022-10-18T05:53:41.949Z,99112.34
2022-10-18T05:56:12.759Z,99102.81
2022-10-18T05:58:42.095Z,99104.56
2022-10-18T06:01:11.336Z,99118.50
2022-10-18T06:03:39.787Z,99105.41
2022-10-18T06:06:10.413Z,99101.03
2022-10-18T06:08:40.261Z,99107.91
2022-10-18T06:11:10.232Z,99106.03
2022-10-18T06:13:43.499Z,99094.75
2022-10-18T06:16:13.057Z,99111.84
2022-10-18T06:18:41.935Z,99107.56
2022-10-18T06:21:11.073Z,99108.19
2022-10-18T06:23:39.349Z,99110.91
2022-10-18T06:26:09.291Z,99115.94
2022-10-18T06:28:39.203Z,99117.59
2022-10-18T06:31:08.995Z,99119.28
2022-10-18T06:33:38.020Z,99114.06
2022-10-18T06:36:08.924Z,99113.91
2022-10-18T06:38:37.498Z,99120.75
2022-10-18T06:41:06.971Z,99117.06
2022-10-18T06:43:35.774Z,99118.56
2022-10-18T06:46:07.559Z,99119.97
2022-10-18T06:48:38.145Z,99121.47
2022-10-18T06:51:08.712Z,99119.50
2022-10-18T06:53:43.877Z,99128.91
2022-10-18T06:56:21.953Z,99132.19
2022-10-18T06:58:50.714Z,99135.63
2022-10-18T07:01:20.072Z,99134.56
2022-10-18T07:03:52.913Z,99129.28
2022-10-18T07:06:22.858Z,99129.19
2022-10-18T07:08:54.068Z,99142.13
2022-10-18T07:11:26.122Z,99140.38
2022-10-18T07:13:57.019Z,99139.44
2022-10-18T07:16:25.297Z,99130.63
2022-10-18T07:18:54.896Z,99127.00
2022-10-18T07:21:26.184Z,99127.75
2022-10-18T07:23:55.076Z,99136.28
2022-10-18T07:26:25.798Z,99135.84
2022-10-18T07:28:57.991Z,99135.47
2022-10-18T07:31:27.013Z,99141.88
2022-10-18T07:33:56.686Z,99145.97
2022-10-18T07:36:25.558Z,99138.91
2022-10-18T07:38:54.612Z,99144.78
2022-10-18T07:41:23.332Z,99146.28
2022-10-18T07:43:53.393Z,99150.63
2022-10-18T07:46:23.322Z,99145.97
2022-10-18T07:48:52.692Z,99153.03
2022-10-18T07:51:22.539Z,99141.06
2022-10-18T07:53:50.992Z,99138.81
2022-10-18T07:56:21.791Z,99133.22
2022-10-18T07:58:52.607Z,99139.91
2022-10-18T08:01:22.834Z,99140.44
2022-10-18T08:03:51.772Z,99139.34
2022-10-18T08:06:23.768Z,99149.38
2022-10-18T08:08:53.501Z,99147.81
2022-10-18T08:11:24.653Z,99149.28
2022-10-18T08:13:54.704Z,99149.84
2022-10-18T08:16:27.540Z,99157.66
2022-10-18T08:18:56.048Z,99155.88
2022-10-18T08:21:26.670Z,99171.75
2022-10-18T08:23:55.304Z,99163.09
2022-10-18T08:26:24.548Z,99163.09
2022-10-18T08:29:09.933Z,99164.69
2022-10-18T08:31:41.605Z,99172.41
2022-10-18T08:34:10.006Z,99171.69
2022-10-18T08:36:39.684Z,99177.63
2022-10-18T08:39:07.992Z,99174.94
2022-10-18T08:42:01.959Z,99185.25
2022-10-18T08:44:33.471Z,99174.63
2022-10-18T08:47:06.055Z,99175.16
2022-10-18T08:49:46.357Z,99166.94
2022-10-18T08:52:27.450Z,99164.66
2022-10-18T08:55:03.574Z,99170.38
2022-10-18T08:57:33.769Z,99184.91
2022-10-18T09:00:04.172Z,99189.00
2022-10-18T09:02:53.942Z,99187.97
2022-10-18T09:05:32.977Z,99183.19
2022-10-18T09:08:40.368Z,99183.69
2022-10-18T09:11:25.864Z,99185.69
2022-10-18T09:14:38.663Z,99189.03
2022-10-18T09:17:19.103Z,99175.78
2022-10-18T09:22:49.682Z,99193.06
2022-10-18T09:25:22.578Z,99201.00
2022-10-18T09:27:57.542Z,99202.03
2022-10-18T09:30:47.078Z,99202.56
2022-10-18T09:33:31.310Z,99199.38
2022-10-18T09:36:03.489Z,99191.34
2022-10-18T09:38:35.758Z,99193.97
2022-10-18T09:41:11.084Z,99205.03
2022-10-18T09:43:52.144Z,99210.59
2022-10-18T09:46:23.138Z,99204.84
2022-10-18T09:48:55.677Z,99203.28
2022-10-18T09:51:29.576Z,99207.69
2022-10-18T09:54:14.602Z,99204.31
2022-10-18T09:56:46.774Z,99210.41
2022-10-18T09:59:31.461Z,99210.16
2022-10-18T10:01:59.772Z,99205.47
2022-10-18T10:04:28.230Z,99208.94
2022-10-18T10:06:58.555Z,99209.75
2022-10-18T10:09:29.624Z,99209.75
2022-10-18T10:11:59.866Z,99207.22
2022-10-18T10:14:30.802Z,99210.59
2022-10-18T10:17:03.408Z,99207.56
2022-10-18T10:19:39.235Z,99217.91
2022-10-18T10:22:10.915Z,99215.78
2022-10-18T10:24:48.588Z,99213.94
2022-10-18T10:27:22.653Z,99211.81
2022-10-18T10:29:57.093Z,99215.38
2022-10-18T10:32:32.439Z,99209.69
2022-10-18T10:35:01.210Z,99213.81
2022-10-18T10:37:36.109Z,99206.53
2022-10-18T10:40:27.667Z,99208.88
2022-10-18T10:43:36.391Z,99208.88
2022-10-18T10:46:10.000Z,99208.31
2022-10-18T10:48:48.974Z,99213.25
2022-10-18T10:51:29.742Z,99213.53
2022-10-18T10:54:03.839Z,99209.63
2022-10-18T10:56:34.941Z,99203.84
2022-10-18T10:59:15.322Z,99202.66
2022-10-18T11:01:43.822Z,99206.88
2022-10-18T11:04:31.774Z,99202.03
2022-10-18T11:07:13.418Z,99195.50
2022-10-18T11:09:59.287Z,99199.69
2022-10-18T11:12:34.523Z,99192.78
2022-10-18T11:15:22.140Z,99196.31
2022-10-18T11:18:05.778Z,99191.81
2022-10-18T11:20:38.627Z,99190.53
2022-10-18T11:23:09.692Z,99188.28
2022-10-18T11:26:03.745Z,99190.50
2022-10-18T11:29:07.699Z,99179.41
2022-10-18T11:31:44.314Z,99174.91
2022-10-18T11:34:41.758Z,99179.41
2022-10-18T11:37:39.356Z,99180.41
2022-10-18T11:40:31.766Z,99173.63
2022-10-18T11:43:13.748Z,99176.69
2022-10-18T11:45:52.257Z,99173.44
2022-10-18T11:48:44.358Z,99170.38
2022-10-18T11:51:34.006Z,99170.69
2022-10-18T11:54:35.099Z,99177.50
2022-10-18T11:57:15.582Z,99171.56
2022-10-18T11:59:53.370Z,99169.09
2022-10-18T12:02:48.060Z,99166.47
2022-10-18T12:05:23.544Z,99172.47
2022-10-18T12:07:58.880Z,99162.09
2022-10-18T12:10:44.292Z,99175.59
2022-10-18T12:13:23.440Z,99171.09
2022-10-18T12:15:52.976Z,99165.09
2022-10-18T12:18:25.842Z,99166.44
2022-10-18T12:20:58.325Z,99154.84
2022-10-18T12:23:39.051Z,99155.06
2022-10-18T12:26:11.350Z,99154.59
2022-10-18T12:28:50.681Z,99154.09
2022-10-18T12:31:26.049Z,99163.84
2022-10-18T12:33:59.471Z,99164.22
2022-10-18T12:36:53.273Z,99153.25
2022-10-18T12:39:37.668Z,99148.97
2022-10-18T12:42:22.206Z,99154.75
2022-10-18T12:44:51.329Z,99147.81
2022-10-18T12:47:25.230Z,99153.03
2022-10-18T12:50:05.062Z,99145.25
2022-10-18T12:52:36.990Z,99145.63
2022-10-18T12:55:28.989Z,99149.72
2022-10-18T12:58:30.526Z,99151.19
2022-10-18T13:01:03.247Z,99154.75
2022-10-18T13:04:01.531Z,99147.66
2022-10-18T13:07:19.506Z,99151.59
2022-10-18T13:10:38.218Z,99146.50
2022-10-18T13:13:39.907Z,99157.34
2022-10-18T13:16:36.682Z,99158.38
2022-10-18T13:19:22.059Z,99158.50
2022-10-18T13:22:05.444Z,99159.13
2022-10-18T13:24:39.047Z,99155.41
2022-10-18T13:27:36.800Z,99158.19
2022-10-18T13:30:38.537Z,99145.47
2022-10-18T13:33:29.893Z,99148.84
2022-10-18T13:36:00.826Z,99140.03
2022-10-18T13:38:48.847Z,99143.09
2022-10-18T13:41:20.977Z,99145.19
2022-10-18T13:44:12.230Z,99143.44
2022-10-18T13:47:36.253Z,99146.69
2022-10-18T13:50:34.672Z,99143.34
2022-10-18T13:53:41.947Z,99145.97
2022-10-18T13:56:47.617Z,99148.72
2022-10-18T13:59:42.321Z,99149.97
2022-10-18T14:02:51.145Z,99146.91
2022-10-18T14:05:41.828Z,99149.81
2022-10-18T14:08:17.357Z,99153.53
2022-10-18T14:11:02.507Z,99152.75
2022-10-18T14:13:41.557Z,99158.84
2022-10-18T14:16:33.228Z,99149.94
2022-10-18T14:19:14.980Z,99160.72
2022-10-18T14:21:53.331Z,99155.38
2022-10-18T14:24:25.741Z,99160.56
2022-10-18T14:27:19.187Z,99175.75
2022-10-18T14:29:48.422Z,99178.84
2022-10-18T14:32:29.149Z,99173.22
2022-10-18T14:35:20.611Z,99171.69
2022-10-18T14:37:49.060Z,99179.97
2022-10-18T14:40:34.699Z,99176.50
2022-10-18T14:43:07.917Z,99181.34
2022-10-18T14:45:36.467Z,99175.06
2022-10-18T14:48:16.500Z,99184.16
2022-10-18T14:50:47.502Z,99165.41
2022-10-18T14:53:20.965Z,99173.97
2022-10-18T14:55:56.149Z,99165.94
2022-10-18T14:58:24.973Z,99167.56
2022-10-18T15:00:54.150Z,99168.28
2022-10-18T15:03:24.599Z,99173.78
2022-10-18T15:05:56.767Z,99167.69
2022-10-18T15:08:26.702Z,99167.94
2022-10-18T15:10:55.279Z,99173.22
2022-10-18T15:13:25.104Z,99167.63
2022-10-18T15:15:54.465Z,99172.47
2022-10-18T15:18:26.935Z,99167.63
2022-10-18T15:21:22.231Z,99176.66
2022-10-18T15:23:50.861Z,99185.13
2022-10-18T15:26:26.422Z,99172.91
2022-10-18T15:29:00.419Z,99178.94
2022-10-18T15:31:35.826Z,99175.31
2022-10-18T15:34:17.487Z,99171.13
2022-10-18T15:36:46.894Z,99163.63
2022-10-18T15:39:19.119Z,99169.09
2022-10-18T15:41:50.683Z,99162.16
2022-10-18T15:44:26.355Z,99163.84
2022-10-18T15:46:59.060Z,99164.19
2022-10-18T15:49:56.704Z,99171.50
2022-10-18T15:52:41.434Z,99178.44
2022-10-18T15:55:48.998Z,99168.44
2022-10-18T15:58:24.873Z,99169.25
2022-10-18T16:00:55.601Z,99169.63
2022-10-18T16:03:24.176Z,99175.84
2022-10-18T16:05:58.715Z,99172.75
2022-10-18T16:08:30.582Z,99172.19
2022-10-18T16:11:00.185Z,99169.81
2022-10-18T16:13:29.038Z,99173.38
2022-10-18T16:15:57.562Z,99179.72
2022-10-18T16:18:27.505Z,99179.78
2022-10-18T16:20:57.515Z,99175.00
2022-10-18T16:23:28.497Z,99178.16
2022-10-18T16:25:57.658Z,99182.44
2022-10-18T16:28:27.983Z,99182.91
2022-10-18T16:30:59.027Z,99182.00
2022-10-18T16:33:28.352Z,99187.03
2022-10-18T16:35:58.866Z,99179.38
2022-10-18T16:38:34.085Z,99184.75
2022-10-18T16:41:04.857Z,99189.31
2022-10-18T16:43:33.630Z,99193.50
2022-10-18T16:46:03.177Z,99193.84
2022-10-18T16:48:31.640Z,99204.47
2022-10-18T16:51:01.349Z,99201.16
2022-10-18T16:53:29.787Z,99201.38
2022-10-18T16:56:00.585Z,99205.91
2022-10-18T16:58:32.013Z,99207.84
2022-10-18T17:01:03.012Z,99213.78
2022-10-18T17:03:33.780Z,99213.97
2022-10-18T17:06:03.496Z,99225.22
2022-10-18T17:08:31.819Z,99227.38
2022-10-18T17:11:01.761Z,99230.34
2022-10-18T17:13:30.059Z,99228.78
2022-10-18T17:16:00.852Z,99231.66
2022-10-18T17:18:30.656Z,99229.25
2022-10-18T17:21:02.552Z,99232.13
2022-10-18T17:23:34.129Z,99227.00
2022-10-18T17:26:21.916Z,99227.34
2022-10-18T17:28:52.769Z,99222.34
2022-10-18T17:31:21.765Z,99219.25
2022-10-18T17:33:50.179Z,99233.06
2022-10-18T17:36:18.496Z,99234.13
2022-10-18T17:38:51.827Z,99236.25
2022-10-18T17:41:20.277Z,99241.97
2022-10-18T17:43:49.025Z,99236.84
2022-10-18T17:46:17.950Z,99245.19
2022-10-18T17:48:47.030Z,99241.81
2022-10-18T17:51:18.276Z,99245.84
2022-10-18T17:53:48.590Z,99238.94
2022-10-18T17:56:17.341Z,99250.75
2022-10-18T17:58:47.017Z,99248.66
2022-10-18T18:01:18.808Z,99252.47
2022-10-18T18:03:47.837Z,99258.88
2022-10-18T18:06:19.736Z,99256.56
2022-10-18T18:08:50.908Z,99256.91
2022-10-18T18:11:20.123Z,99261.53
2022-10-18T18:13:48.468Z,99260.09
2022-10-18T18:16:20.357Z,99262.34
2022-10-18T18:18:51.582Z,99260.78
2022-10-18T18:21:24.403Z,99260.16
2022-10-18T18:23:56.480Z,99258.72
2022-10-18T18:26:28.776Z,99263.47
2022-10-18T18:28:57.453Z,99262.00
2022-10-18T18:31:29.415Z,99258.78
2022-10-18T18:34:00.807Z,99259.00
2022-10-18T18:36:29.829Z,99261.00
2022-10-18T18:38:59.708Z,99254.19
2022-10-18T18:41:29.593Z,99257.13
2022-10-18T18:44:00.438Z,99256.84
2022-10-18T18:46:33.007Z,99243.03
2022-10-18T18:49:02.170Z,99251.94
2022-10-18T18:51:32.055Z,99253.13
2022-10-18T18:54:02.025Z,99249.03
2022-10-18T18:56:30.647Z,99251.09
2022-10-18T18:59:00.381Z,99248.09
2022-10-18T19:01:31.188Z,99251.13
2022-10-18T19:04:01.240Z,99260.03
2022-10-18T19:06:32.427Z,99258.69
2022-10-18T19:09:07.104Z,99255.44
2022-10-18T19:11:37.717Z,99250.75
2022-10-18T19:14:08.160Z,99250.63
2022-10-18T19:16:38.032Z,99249.28
2022-10-18T19:19:09.313Z,99249.69
2022-10-18T19:21:40.156Z,99249.06
2022-10-18T19:24:10.246Z,99248.22
2022-10-18T19:26:44.554Z,99237.06
2022-10-18T19:29:15.653Z,99245.94
2022-10-18T19:31:45.135Z,99248.88
2022-10-18T19:34:16.134Z,99243.00
2022-10-18T19:36:46.922Z,99243.97
2022-10-18T19:39:19.331Z,99244.03
2022-10-18T19:41:49.258Z,99246.88
2022-10-18T19:44:18.650Z,99246.97
2022-10-18T19:46:47.673Z,99241.75
2022-10-18T19:49:16.343Z,99240.19
2022-10-18T19:51:44.946Z,99243.00
2022-10-18T19:54:14.056Z,99246.78
2022-10-18T19:56:44.137Z,99246.97
2022-10-18T19:59:14.281Z,99248.13
2022-10-18T20:01:42.832Z,99244.03
2022-10-18T20:04:13.364Z,99246.84
2022-10-18T20:06:42.600Z,99247.03
2022-10-18T20:09:14.837Z,99247.22
2022-10-18T20:11:47.576Z,99248.38
2022-10-18T20:14:15.845Z,99236.25
2022-10-18T20:16:44.179Z,99247.53
2022-10-18T20:19:12.627Z,99247.72
2022-10-18T20:21:41.105Z,99245.22
2022-10-18T20:24:10.222Z,99242.81
2022-10-18T20:26:39.415Z,99246.75
2022-10-18T20:29:09.367Z,99248.75
2022-10-18T20:31:39.012Z,99255.09
2022-10-18T20:34:11.805Z,99244.13
2022-10-18T20:36:40.700Z,99244.25
2022-10-18T20:39:09.606Z,99246.84
2022-10-18T20:41:40.904Z,99246.09
2022-10-18T20:44:17.010Z,99243.16
2022-10-18T20:46:45.753Z,99244.09
2022-10-18T20:49:16.612Z,99236.56
2022-10-18T20:51:45.154Z,99241.16
2022-10-18T20:54:14.032Z,99243.75
2022-10-18T20:56:42.428Z,99239.56
2022-10-18T20:59:12.151Z,99237.97
2022-10-18T21:01:41.127Z,99238.28
2022-10-18T21:04:11.576Z,99235.84
2022-10-18T21:06:42.165Z,99223.94
2022-10-18T21:09:13.487Z,99233.53
2022-10-18T21:11:44.880Z,99228.44
2022-10-18T21:14:17.591Z,99237.28
2022-10-18T21:16:46.922Z,99233.94
2022-10-18T21:19:18.211Z,99228.75
2022-10-18T21:21:49.526Z,99234.16
2022-10-18T21:24:19.231Z,99225.97
2022-10-18T21:26:48.503Z,99232.13
2022-10-18T21:29:22.238Z,99236.47
2022-10-18T21:31:54.043Z,99229.53
2022-10-18T21:34:22.556Z,99232.66
2022-10-18T21:36:51.011Z,99237.16
2022-10-18T21:41:55.788Z,99231.00
2022-10-18T21:44:25.809Z,99223.47
2022-10-18T21:46:54.991Z,99226.19
2022-10-18T21:49:24.921Z,99215.09
2022-10-18T21:51:53.260Z,99221.69
2022-10-18T21:54:21.647Z,99215.66
2022-10-18T21:56:51.120Z,99218.47
2022-10-18T21:59:19.525Z,99209.44
2022-10-18T22:01:49.156Z,99204.97
2022-10-18T22:04:21.433Z,99207.41
2022-10-18T22:06:50.130Z,99196.09
2022-10-18T22:09:19.317Z,99198.09
2022-10-18T22:11:52.560Z,99198.16
2022-10-18T22:14:21.050Z,99199.94
2022-10-18T22:16:51.103Z,99205.34
2022-10-18T22:19:20.034Z,99194.44
2022-10-18T22:21:48.446Z,99204.13
2022-10-18T22:24:17.587Z,99204.25
2022-10-18T22:26:46.866Z,99204.41
2022-10-18T22:29:18.384Z,99196.88
2022-10-18T22:31:51.335Z,99197.06
2022-10-18T22:34:23.058Z,99200.97
2022-10-18T22:36:51.779Z,99203.66
2022-10-18T22:39:20.389Z,99209.06
2022-10-18T22:41:52.154Z,99200.47
2022-10-18T22:44:20.521Z,99200.47
2022-10-18T22:46:50.413Z,99205.78
2022-10-18T22:49:19.077Z,99200.47
2022-10-18T22:51:47.295Z,99196.38
2022-10-18T22:54:15.783Z,99204.19
2022-10-18T22:56:44.182Z,99195.66
2022-10-18T22:59:12.531Z,99186.91
2022-10-18T23:01:40.862Z,99180.88
2022-10-18T23:04:11.884Z,99176.50
2022-10-18T23:06:41.098Z,99172.22
2022-10-18T23:09:11.795Z,99175.72
2022-10-18T23:11:40.130Z,99169.78
2022-10-18T23:14:08.907Z,99182.06
2022-10-18T23:16:37.489Z,99182.06
2022-10-18T23:19:06.045Z,99181.16
2022-10-18T23:21:35.950Z,99178.53
2022-10-18T23:24:04.455Z,99170.06
2022-10-18T23:26:32.819Z,99172.97
2022-10-18T23:29:01.414Z,99174.78
2022-10-18T23:31:32.587Z,99170.53
2022-10-18T23:34:03.280Z,99171.69
2022-10-18T23:36:32.508Z,99167.31
2022-10-18T23:39:03.323Z,99181.63
2022-10-18T23:41:31.891Z,99183.66
2022-10-18T23:44:00.132Z,99179.47
2022-10-18T23:46:28.505Z,99173.63
2022-10-18T23:48:56.876Z,99173.78
2022-10-18T23:51:25.153Z,99178.16
2022-10-18T23:53:53.489Z,99180.81
2022-10-18T23:56:23.188Z,99179.16
2022-10-18T23:58:51.462Z,99179.16
